Aérodrome :
LOGIN :

S'inscrire | Disclaimer

   EN    FR    IT 

 










Légende :    VFR   VFR Marginal   IFR   IFR Intensif   IFR Très Intensif
Visi : 
Plafond : 
>= 8 km
>= 3000ft
5 à 8 km
1000 à 3000 ft
1500m à 5 km
500 à 1000 ft
800 à 1500m
200 à 500 ft
< 800m
< 200 ft
Symboles :   Orages  Brouillard  Fortes neiges  Fortes précipitations  Vent > 20 kt
SIGMETs :   Divers  Orages  Givrage  Turbulence  Onde Orograph.  Cendres Volcan.







- Altitude de l'aérodrome : 526 ft
- Code IATA : LTN
- Voir les cartes d'approche


EGGW - London Luton

DERNIER METAR :
  • 140620Z AUTO 23006KT 9999 OVC039 14/12 Q1015

METARs EXPIRÉS :
  • 140550Z AUTO 25006KT 9999 OVC038 14/12 Q1015
  • 140520Z AUTO 26006KT 9999 BKN040 13/11 Q1015
  • 140450Z AUTO 27009KT 9999 NCD 13/11 Q1014
  • 140420Z AUTO 29008KT 9999 NCD 13/11 Q1014
  • 140350Z AUTO 28009KT 9999 NCD 13/11 Q1014

TAF TAF EGGW
Valide du 14 à 06h jusqu'au 15 à 06h UTC


140457Z 1406/1506 27008KT 9999 SCT030
PROB30
TEMPO 1500/1506 BKN010
ATIS : +44 1582 395 204
Pas de NOTAMs connus pour ce terrain.



MET'MAP, la Météo Aéronautique d'un coup d'oeil ! - Copyright ORBIFLY Décembre 2007 - Disclaimer

ORBIFLY MET'MAP TEAM :

Programmation & Développement : Alexandra Zaïnal
Conception & Développement : Baudouin d'Aumeries
Co-Programmation & Développement : Marc-Olivier Méhu
Soutien technique & logistique : Manuel Goepfert

Contact : metmap@orbifly.com




SOURCES & CREDITS :

   NOAA